sensor_id;sensor_type;location;lat;lon;timestamp;P1;durP1;ratioP1;P2;durP2;ratioP2
44000;SDS011;29660;42.892;24.710;2022-12-07T00:04:39;39.05;;;24.65;;
44000;SDS011;29660;42.892;24.710;2022-12-07T00:09:41;40.08;;;24.10;;
44000;SDS011;29660;42.892;24.710;2022-12-07T00:14:43;51.28;;;29.48;;
44000;SDS011;29660;42.892;24.710;2022-12-07T00:19:47;35.15;;;22.65;;
44000;SDS011;29660;42.892;24.710;2022-12-07T00:24:49;54.92;;;33.55;;
44000;SDS011;29660;42.892;24.710;2022-12-07T00:29:51;65.13;;;38.67;;
44000;SDS011;29660;42.892;24.710;2022-12-07T00:34:53;66.63;;;40.50;;
44000;SDS011;29660;42.892;24.710;2022-12-07T00:39:55;64.78;;;38.70;;
44000;SDS011;29660;42.892;24.710;2022-12-07T00:44:57;99.00;;;54.92;;
44000;SDS011;29660;42.892;24.710;2022-12-07T00:49:59;99.00;;;60.17;;
44000;SDS011;29660;42.892;24.710;2022-12-07T00:55:02;81.88;;;49.20;;
44000;SDS011;29660;42.892;24.710;2022-12-07T01:00:04;72.88;;;43.42;;
44000;SDS011;29660;42.892;24.710;2022-12-07T01:05:07;67.93;;;41.20;;
44000;SDS011;29660;42.892;24.710;2022-12-07T01:10:09;63.63;;;42.40;;
44000;SDS011;29660;42.892;24.710;2022-12-07T01:15:11;77.47;;;48.70;;
44000;SDS011;29660;42.892;24.710;2022-12-07T01:20:14;62.40;;;39.20;;
44000;SDS011;29660;42.892;24.710;2022-12-07T01:25:18;66.55;;;43.38;;
44000;SDS011;29660;42.892;24.710;2022-12-07T01:30:20;72.18;;;43.03;;
44000;SDS011;29660;42.892;24.710;2022-12-07T01:35:22;66.53;;;45.08;;
44000;SDS011;29660;42.892;24.710;2022-12-07T01:40:24;63.67;;;40.47;;
44000;SDS011;29660;42.892;24.710;2022-12-07T01:45:41;56.03;;;32.50;;
44000;SDS011;29660;42.892;24.710;2022-12-07T01:50:44;57.65;;;33.90;;
44000;SDS011;29660;42.892;24.710;2022-12-07T01:55:50;59.25;;;35.50;;
44000;SDS011;29660;42.892;24.710;2022-12-07T02:00:54;54.42;;;35.08;;
44000;SDS011;29660;42.892;24.710;2022-12-07T02:05:56;52.88;;;34.92;;
44000;SDS011;29660;42.892;24.710;2022-12-07T02:11:01;57.03;;;36.30;;
44000;SDS011;29660;42.892;24.710;2022-12-07T02:33:04;58.88;;;35.88;;
44000;SDS011;29660;42.892;24.710;2022-12-07T02:48:44;59.20;;;31.30;;
44000;SDS011;29660;42.892;24.710;2022-12-07T02:53:48;52.90;;;30.92;;
44000;SDS011;29660;42.892;24.710;2022-12-07T03:14:41;50.15;;;30.20;;
44000;SDS011;29660;42.892;24.710;2022-12-07T03:19:51;53.75;;;29.20;;
44000;SDS011;29660;42.892;24.710;2022-12-07T03:24:59;58.17;;;31.15;;
44000;SDS011;29660;42.892;24.710;2022-12-07T03:30:49;53.83;;;30.45;;
44000;SDS011;29660;42.892;24.710;2022-12-07T03:36:04;51.78;;;29.95;;
44000;SDS011;29660;42.892;24.710;2022-12-07T03:57:22;63.50;;;38.60;;
44000;SDS011;29660;42.892;24.710;2022-12-07T04:02:27;51.00;;;30.17;;
44000;SDS011;29660;42.892;24.710;2022-12-07T04:07:30;45.10;;;27.83;;
44000;SDS011;29660;42.892;24.710;2022-12-07T04:12:32;48.55;;;28.33;;
44000;SDS011;29660;42.892;24.710;2022-12-07T04:17:34;44.65;;;26.90;;
44000;SDS011;29660;42.892;24.710;2022-12-07T04:22:36;46.67;;;29.70;;
44000;SDS011;29660;42.892;24.710;2022-12-07T04:27:39;58.22;;;34.72;;
44000;SDS011;29660;42.892;24.710;2022-12-07T04:32:41;78.75;;;50.83;;
44000;SDS011;29660;42.892;24.710;2022-12-07T04:37:43;99.90;;;63.40;;
44000;SDS011;29660;42.892;24.710;2022-12-07T04:42:45;57.60;;;38.80;;
44000;SDS011;29660;42.892;24.710;2022-12-07T04:48:05;62.70;;;39.20;;
44000;SDS011;29660;42.892;24.710;2022-12-07T04:53:07;57.63;;;36.97;;
44000;SDS011;29660;42.892;24.710;2022-12-07T04:58:09;50.75;;;34.05;;
44000;SDS011;29660;42.892;24.710;2022-12-07T05:03:11;51.53;;;36.85;;
44000;SDS011;29660;42.892;24.710;2022-12-07T05:08:13;50.80;;;33.38;;
44000;SDS011;29660;42.892;24.710;2022-12-07T05:13:15;47.35;;;32.42;;
44000;SDS011;29660;42.892;24.710;2022-12-07T05:18:18;53.33;;;32.35;;
44000;SDS011;29660;42.892;24.710;2022-12-07T05:23:20;54.17;;;36.35;;
44000;SDS011;29660;42.892;24.710;2022-12-07T05:28:22;77.40;;;51.03;;
44000;SDS011;29660;42.892;24.710;2022-12-07T05:33:24;53.95;;;34.58;;
44000;SDS011;29660;42.892;24.710;2022-12-07T05:38:26;55.83;;;35.38;;
44000;SDS011;29660;42.892;24.710;2022-12-07T05:43:28;54.88;;;37.10;;
44000;SDS011;29660;42.892;24.710;2022-12-07T05:48:31;65.20;;;40.53;;
44000;SDS011;29660;42.892;24.710;2022-12-07T05:53:33;56.78;;;36.25;;
44000;SDS011;29660;42.892;24.710;2022-12-07T05:58:35;58.92;;;36.97;;
44000;SDS011;29660;42.892;24.710;2022-12-07T06:03:55;62.70;;;42.20;;
44000;SDS011;29660;42.892;24.710;2022-12-07T06:08:57;57.00;;;39.20;;
44000;SDS011;29660;42.892;24.710;2022-12-07T06:13:59;62.08;;;35.28;;
44000;SDS011;29660;42.892;24.710;2022-12-07T06:19:02;49.47;;;33.92;;
44000;SDS011;29660;42.892;24.710;2022-12-07T06:24:04;206.43;;;155.30;;
44000;SDS011;29660;42.892;24.710;2022-12-07T06:29:06;59.55;;;40.05;;
44000;SDS011;29660;42.892;24.710;2022-12-07T06:34:10;64.38;;;43.20;;
44000;SDS011;29660;42.892;24.710;2022-12-07T06:39:14;61.58;;;39.65;;
44000;SDS011;29660;42.892;24.710;2022-12-07T06:44:16;81.90;;;49.88;;
44000;SDS011;29660;42.892;24.710;2022-12-07T06:49:18;82.28;;;53.13;;
44000;SDS011;29660;42.892;24.710;2022-12-07T07:01:34;100.35;;;63.00;;
44000;SDS011;29660;42.892;24.710;2022-12-07T07:06:37;100.30;;;60.83;;
44000;SDS011;29660;42.892;24.710;2022-12-07T07:11:39;101.25;;;63.60;;
44000;SDS011;29660;42.892;24.710;2022-12-07T07:16:41;113.40;;;74.55;;
44000;SDS011;29660;42.892;24.710;2022-12-07T07:21:43;94.00;;;64.13;;
44000;SDS011;29660;42.892;24.710;2022-12-07T07:26:45;91.63;;;61.40;;
44000;SDS011;29660;42.892;24.710;2022-12-07T07:31:47;92.20;;;61.53;;
44000;SDS011;29660;42.892;24.710;2022-12-07T07:36:49;100.05;;;71.85;;
44000;SDS011;29660;42.892;24.710;2022-12-07T07:41:52;91.05;;;60.95;;
44000;SDS011;29660;42.892;24.710;2022-12-07T07:46:59;110.50;;;76.72;;
44000;SDS011;29660;42.892;24.710;2022-12-07T07:52:01;100.75;;;74.97;;
44000;SDS011;29660;42.892;24.710;2022-12-07T07:57:04;125.07;;;89.30;;
44000;SDS011;29660;42.892;24.710;2022-12-07T08:02:06;117.55;;;89.57;;
44000;SDS011;29660;42.892;24.710;2022-12-07T08:07:11;103.88;;;74.22;;
44000;SDS011;29660;42.892;24.710;2022-12-07T08:12:14;75.88;;;53.22;;
44000;SDS011;29660;42.892;24.710;2022-12-07T08:17:16;55.03;;;41.08;;
44000;SDS011;29660;42.892;24.710;2022-12-07T08:22:18;76.45;;;48.55;;
44000;SDS011;29660;42.892;24.710;2022-12-07T08:27:20;72.75;;;49.97;;
44000;SDS011;29660;42.892;24.710;2022-12-07T08:32:25;60.85;;;39.53;;
44000;SDS011;29660;42.892;24.710;2022-12-07T08:37:27;58.72;;;42.78;;
44000;SDS011;29660;42.892;24.710;2022-12-07T08:42:29;38.42;;;25.65;;
44000;SDS011;29660;42.892;24.710;2022-12-07T08:47:42;40.80;;;28.30;;
44000;SDS011;29660;42.892;24.710;2022-12-07T08:52:48;41.67;;;30.38;;
44000;SDS011;29660;42.892;24.710;2022-12-07T08:57:59;56.03;;;39.15;;
44000;SDS011;29660;42.892;24.710;2022-12-07T09:03:04;47.22;;;36.75;;
44000;SDS011;29660;42.892;24.710;2022-12-07T09:08:06;63.10;;;45.22;;
44000;SDS011;29660;42.892;24.710;2022-12-07T09:13:09;59.55;;;43.15;;
44000;SDS011;29660;42.892;24.710;2022-12-07T09:18:11;56.72;;;40.92;;
44000;SDS011;29660;42.892;24.710;2022-12-07T09:23:13;37.00;;;27.65;;
44000;SDS011;29660;42.892;24.710;2022-12-07T09:28:15;21.05;;;15.63;;
44000;SDS011;29660;42.892;24.710;2022-12-07T09:33:36;21.60;;;15.68;;
44000;SDS011;29660;42.892;24.710;2022-12-07T09:38:38;24.20;;;18.25;;
44000;SDS011;29660;42.892;24.710;2022-12-07T09:43:40;27.27;;;18.77;;
44000;SDS011;29660;42.892;24.710;2022-12-07T09:48:43;19.05;;;13.82;;
44000;SDS011;29660;42.892;24.710;2022-12-07T09:53:46;20.92;;;16.92;;
44000;SDS011;29660;42.892;24.710;2022-12-07T09:58:50;24.88;;;17.15;;
44000;SDS011;29660;42.892;24.710;2022-12-07T10:09:20;50.33;;;34.80;;
44000;SDS011;29660;42.892;24.710;2022-12-07T10:14:23;95.20;;;57.78;;
44000;SDS011;29660;42.892;24.710;2022-12-07T10:19:45;34.92;;;23.88;;
44000;SDS011;29660;42.892;24.710;2022-12-07T10:24:47;25.58;;;18.95;;
44000;SDS011;29660;42.892;24.710;2022-12-07T10:29:50;44.58;;;35.33;;
44000;SDS011;29660;42.892;24.710;2022-12-07T10:35:15;57.28;;;38.05;;
44000;SDS011;29660;42.892;24.710;2022-12-07T10:45:34;30.20;;;20.63;;
44000;SDS011;29660;42.892;24.710;2022-12-07T11:18:18;15.02;;;10.30;;
44000;SDS011;29660;42.892;24.710;2022-12-07T11:23:36;20.08;;;13.27;;
44000;SDS011;29660;42.892;24.710;2022-12-07T11:34:07;15.75;;;9.73;;
44000;SDS011;29660;42.892;24.710;2022-12-07T11:54:35;38.28;;;18.63;;
44000;SDS011;29660;42.892;24.710;2022-12-07T11:59:45;41.65;;;17.25;;
44000;SDS011;29660;42.892;24.710;2022-12-07T12:05:06;55.22;;;32.33;;
44000;SDS011;29660;42.892;24.710;2022-12-07T12:20:51;36.13;;;15.35;;
44000;SDS011;29660;42.892;24.710;2022-12-07T12:26:01;29.08;;;12.70;;
44000;SDS011;29660;42.892;24.710;2022-12-07T12:46:38;13.80;;;8.40;;
44000;SDS011;29660;42.892;24.710;2022-12-07T12:51:51;11.88;;;7.57;;
44000;SDS011;29660;42.892;24.710;2022-12-07T13:23:31;51.38;;;35.88;;
44000;SDS011;29660;42.892;24.710;2022-12-07T13:33:51;33.05;;;22.00;;
44000;SDS011;29660;42.892;24.710;2022-12-07T13:38:56;58.05;;;35.30;;
44000;SDS011;29660;42.892;24.710;2022-12-07T13:44:05;44.92;;;24.10;;
44000;SDS011;29660;42.892;24.710;2022-12-07T13:49:31;42.72;;;24.35;;
44000;SDS011;29660;42.892;24.710;2022-12-07T13:54:43;69.30;;;43.93;;
44000;SDS011;29660;42.892;24.710;2022-12-07T13:59:48;37.92;;;26.77;;
44000;SDS011;29660;42.892;24.710;2022-12-07T14:04:50;42.88;;;25.00;;
44000;SDS011;29660;42.892;24.710;2022-12-07T14:10:03;60.28;;;35.83;;
44000;SDS011;29660;42.892;24.710;2022-12-07T14:15:15;65.28;;;44.90;;
44000;SDS011;29660;42.892;24.710;2022-12-07T14:25:46;92.07;;;65.88;;
44000;SDS011;29660;42.892;24.710;2022-12-07T14:30:53;164.68;;;126.95;;
44000;SDS011;29660;42.892;24.710;2022-12-07T14:35:55;147.65;;;116.13;;
44000;SDS011;29660;42.892;24.710;2022-12-07T14:40:59;101.93;;;70.05;;
44000;SDS011;29660;42.892;24.710;2022-12-07T14:46:44;141.77;;;96.70;;
44000;SDS011;29660;42.892;24.710;2022-12-07T14:51:46;156.82;;;118.60;;
44000;SDS011;29660;42.892;24.710;2022-12-07T14:57:09;146.23;;;106.97;;
44000;SDS011;29660;42.892;24.710;2022-12-07T15:02:13;429.23;;;272.23;;
44000;SDS011;29660;42.892;24.710;2022-12-07T15:07:20;210.32;;;140.77;;
44000;SDS011;29660;42.892;24.710;2022-12-07T15:12:40;149.27;;;109.07;;
44000;SDS011;29660;42.892;24.710;2022-12-07T15:17:43;164.82;;;123.07;;
44000;SDS011;29660;42.892;24.710;2022-12-07T15:22:45;215.30;;;170.65;;
44000;SDS011;29660;42.892;24.710;2022-12-07T15:27:47;231.48;;;182.93;;
44000;SDS011;29660;42.892;24.710;2022-12-07T15:32:50;241.75;;;192.18;;
44000;SDS011;29660;42.892;24.710;2022-12-07T15:37:53;202.13;;;156.32;;
44000;SDS011;29660;42.892;24.710;2022-12-07T15:42:55;152.20;;;115.25;;
44000;SDS011;29660;42.892;24.710;2022-12-07T15:47:57;184.50;;;144.90;;
44000;SDS011;29660;42.892;24.710;2022-12-07T15:53:19;299.10;;;245.88;;
44000;SDS011;29660;42.892;24.710;2022-12-07T15:58:22;322.88;;;225.00;;
44000;SDS011;29660;42.892;24.710;2022-12-07T16:03:24;335.42;;;245.18;;
44000;SDS011;29660;42.892;24.710;2022-12-07T16:08:26;311.92;;;247.20;;
44000;SDS011;29660;42.892;24.710;2022-12-07T16:13:34;309.67;;;246.20;;
44000;SDS011;29660;42.892;24.710;2022-12-07T16:18:36;283.85;;;222.02;;
44000;SDS011;29660;42.892;24.710;2022-12-07T16:23:39;170.70;;;129.68;;
44000;SDS011;29660;42.892;24.710;2022-12-07T16:28:42;346.90;;;262.88;;
44000;SDS011;29660;42.892;24.710;2022-12-07T16:33:45;322.08;;;242.00;;
44000;SDS011;29660;42.892;24.710;2022-12-07T16:38:47;289.02;;;217.70;;
44000;SDS011;29660;42.892;24.710;2022-12-07T16:43:53;262.15;;;191.63;;
44000;SDS011;29660;42.892;24.710;2022-12-07T16:48:56;261.48;;;206.40;;
44000;SDS011;29660;42.892;24.710;2022-12-07T16:53:58;179.68;;;138.13;;
44000;SDS011;29660;42.892;24.710;2022-12-07T16:59:00;347.73;;;249.48;;
44000;SDS011;29660;42.892;24.710;2022-12-07T17:04:02;332.25;;;241.52;;
44000;SDS011;29660;42.892;24.710;2022-12-07T17:09:05;353.33;;;254.80;;
44000;SDS011;29660;42.892;24.710;2022-12-07T17:14:11;289.70;;;224.52;;
44000;SDS011;29660;42.892;24.710;2022-12-07T17:19:33;235.93;;;186.70;;
44000;SDS011;29660;42.892;24.710;2022-12-07T17:24:35;236.88;;;201.00;;
44000;SDS011;29660;42.892;24.710;2022-12-07T17:29:37;257.85;;;207.85;;
44000;SDS011;29660;42.892;24.710;2022-12-07T17:34:58;224.50;;;172.27;;
44000;SDS011;29660;42.892;24.710;2022-12-07T17:40:02;363.63;;;290.75;;
44000;SDS011;29660;42.892;24.710;2022-12-07T17:45:05;276.83;;;205.80;;
44000;SDS011;29660;42.892;24.710;2022-12-07T17:50:09;348.20;;;271.95;;
44000;SDS011;29660;42.892;24.710;2022-12-07T17:55:11;259.25;;;203.38;;
44000;SDS011;29660;42.892;24.710;2022-12-07T18:00:14;327.23;;;255.63;;
44000;SDS011;29660;42.892;24.710;2022-12-07T18:05:16;385.98;;;268.75;;
44000;SDS011;29660;42.892;24.710;2022-12-07T18:10:18;409.85;;;287.25;;
44000;SDS011;29660;42.892;24.710;2022-12-07T18:15:20;319.10;;;238.60;;
44000;SDS011;29660;42.892;24.710;2022-12-07T18:20:22;288.50;;;218.25;;
44000;SDS011;29660;42.892;24.710;2022-12-07T18:25:25;270.15;;;211.13;;
44000;SDS011;29660;42.892;24.710;2022-12-07T18:30:27;273.85;;;204.88;;
44000;SDS011;29660;42.892;24.710;2022-12-07T18:35:50;166.57;;;119.60;;
44000;SDS011;29660;42.892;24.710;2022-12-07T18:40:53;204.00;;;155.85;;
44000;SDS011;29660;42.892;24.710;2022-12-07T18:45:55;192.57;;;130.93;;
44000;SDS011;29660;42.892;24.710;2022-12-07T18:50:58;215.35;;;156.65;;
44000;SDS011;29660;42.892;24.710;2022-12-07T18:56:03;227.80;;;175.15;;
44000;SDS011;29660;42.892;24.710;2022-12-07T19:01:11;218.48;;;169.50;;
44000;SDS011;29660;42.892;24.710;2022-12-07T19:06:13;205.52;;;151.80;;
44000;SDS011;29660;42.892;24.710;2022-12-07T19:11:18;189.10;;;133.23;;
44000;SDS011;29660;42.892;24.710;2022-12-07T19:16:48;195.15;;;146.55;;
44000;SDS011;29660;42.892;24.710;2022-12-07T19:21:53;170.38;;;129.57;;
44000;SDS011;29660;42.892;24.710;2022-12-07T19:26:55;193.25;;;151.73;;
44000;SDS011;29660;42.892;24.710;2022-12-07T19:31:58;178.00;;;138.50;;
44000;SDS011;29660;42.892;24.710;2022-12-07T19:37:02;175.75;;;133.77;;
44000;SDS011;29660;42.892;24.710;2022-12-07T19:42:04;268.63;;;210.27;;
44000;SDS011;29660;42.892;24.710;2022-12-07T19:47:07;212.20;;;157.48;;
44000;SDS011;29660;42.892;24.710;2022-12-07T19:52:16;246.63;;;188.55;;
44000;SDS011;29660;42.892;24.710;2022-12-07T19:57:18;210.60;;;156.73;;
44000;SDS011;29660;42.892;24.710;2022-12-07T20:02:20;161.95;;;114.00;;
44000;SDS011;29660;42.892;24.710;2022-12-07T20:07:22;188.63;;;137.75;;
44000;SDS011;29660;42.892;24.710;2022-12-07T20:12:24;194.93;;;147.23;;
44000;SDS011;29660;42.892;24.710;2022-12-07T20:17:45;228.82;;;175.93;;
44000;SDS011;29660;42.892;24.710;2022-12-07T20:22:47;217.27;;;153.77;;
44000;SDS011;29660;42.892;24.710;2022-12-07T20:27:49;142.73;;;102.97;;
44000;SDS011;29660;42.892;24.710;2022-12-07T20:32:51;181.80;;;137.70;;
44000;SDS011;29660;42.892;24.710;2022-12-07T20:37:54;161.15;;;121.90;;
44000;SDS011;29660;42.892;24.710;2022-12-07T20:42:56;151.05;;;114.97;;
44000;SDS011;29660;42.892;24.710;2022-12-07T20:47:58;175.25;;;121.63;;
44000;SDS011;29660;42.892;24.710;2022-12-07T20:53:00;134.82;;;98.15;;
44000;SDS011;29660;42.892;24.710;2022-12-07T20:58:02;138.52;;;87.55;;
44000;SDS011;29660;42.892;24.710;2022-12-07T21:03:04;206.25;;;83.93;;
44000;SDS011;29660;42.892;24.710;2022-12-07T21:08:06;199.07;;;87.38;;
44000;SDS011;29660;42.892;24.710;2022-12-07T21:13:08;155.73;;;92.07;;
44000;SDS011;29660;42.892;24.710;2022-12-07T21:18:10;158.05;;;113.63;;
44000;SDS011;29660;42.892;24.710;2022-12-07T21:23:12;181.55;;;119.60;;
44000;SDS011;29660;42.892;24.710;2022-12-07T21:28:14;179.50;;;108.65;;
44000;SDS011;29660;42.892;24.710;2022-12-07T21:33:16;389.88;;;128.88;;
44000;SDS011;29660;42.892;24.710;2022-12-07T21:38:18;271.40;;;127.30;;
44000;SDS011;29660;42.892;24.710;2022-12-07T21:43:20;197.63;;;106.55;;
44000;SDS011;29660;42.892;24.710;2022-12-07T21:48:22;255.88;;;142.07;;
44000;SDS011;29660;42.892;24.710;2022-12-07T21:53:24;272.67;;;117.88;;
44000;SDS011;29660;42.892;24.710;2022-12-07T21:58:26;237.23;;;132.02;;
44000;SDS011;29660;42.892;24.710;2022-12-07T22:03:28;260.17;;;166.90;;
44000;SDS011;29660;42.892;24.710;2022-12-07T22:08:30;286.23;;;154.15;;
44000;SDS011;29660;42.892;24.710;2022-12-07T22:13:32;273.13;;;156.93;;
44000;SDS011;29660;42.892;24.710;2022-12-07T22:18:52;256.48;;;147.90;;
44000;SDS011;29660;42.892;24.710;2022-12-07T22:23:55;183.93;;;110.45;;
44000;SDS011;29660;42.892;24.710;2022-12-07T22:28:58;236.25;;;130.73;;
44000;SDS011;29660;42.892;24.710;2022-12-07T22:34:01;230.05;;;123.88;;
44000;SDS011;29660;42.892;24.710;2022-12-07T22:39:03;238.30;;;129.18;;
44000;SDS011;29660;42.892;24.710;2022-12-07T22:44:06;246.38;;;106.70;;
44000;SDS011;29660;42.892;24.710;2022-12-07T22:49:08;291.42;;;123.13;;
44000;SDS011;29660;42.892;24.710;2022-12-07T22:54:12;165.02;;;94.90;;
44000;SDS011;29660;42.892;24.710;2022-12-07T22:59:17;214.45;;;90.10;;
44000;SDS011;29660;42.892;24.710;2022-12-07T23:04:19;139.43;;;79.65;;
44000;SDS011;29660;42.892;24.710;2022-12-07T23:09:20;195.23;;;87.95;;
44000;SDS011;29660;42.892;24.710;2022-12-07T23:14:24;127.03;;;77.85;;
44000;SDS011;29660;42.892;24.710;2022-12-07T23:19:31;115.05;;;57.17;;
44000;SDS011;29660;42.892;24.710;2022-12-07T23:24:33;93.60;;;52.05;;
44000;SDS011;29660;42.892;24.710;2022-12-07T23:29:35;100.53;;;53.05;;
44000;SDS011;29660;42.892;24.710;2022-12-07T23:34:37;110.82;;;59.15;;
44000;SDS011;29660;42.892;24.710;2022-12-07T23:39:39;110.45;;;57.17;;
44000;SDS011;29660;42.892;24.710;2022-12-07T23:44:41;106.50;;;62.83;;
44000;SDS011;29660;42.892;24.710;2022-12-07T23:49:43;135.82;;;52.70;;
44000;SDS011;29660;42.892;24.710;2022-12-07T23:54:45;122.07;;;32.47;;
44000;SDS011;29660;42.892;24.710;2022-12-07T23:59:47;168.10;;;40.92;;
